createdAt,value
2022-12-08T00:01:11.915Z,6.60
2022-12-08T00:03:38.327Z,6.72
2022-12-08T00:06:04.639Z,6.97
2022-12-08T00:08:30.967Z,7.03
2022-12-08T00:10:57.262Z,8.80
2022-12-08T00:13:23.804Z,6.80
2022-12-08T00:15:50.184Z,6.90
2022-12-08T00:18:16.431Z,7.15
2022-12-08T00:20:42.692Z,7.07
2022-12-08T00:23:09.045Z,7.68
2022-12-08T00:25:35.496Z,6.72
2022-12-08T00:28:01.892Z,6.90
2022-12-08T00:30:28.247Z,7.05
2022-12-08T00:32:54.579Z,7.45
2022-12-08T00:35:20.900Z,7.50
2022-12-08T00:37:47.295Z,6.45
2022-12-08T00:40:13.549Z,6.47
2022-12-08T00:42:40.055Z,6.50
2022-12-08T00:45:06.418Z,8.80
2022-12-08T00:47:32.736Z,6.35
2022-12-08T00:49:59.146Z,6.68
2022-12-08T00:52:25.476Z,6.63
2022-12-08T00:54:51.748Z,6.35
2022-12-08T00:57:18.164Z,7.10
2022-12-08T00:59:44.577Z,6.47
2022-12-08T01:02:10.912Z,6.28
2022-12-08T01:04:37.446Z,6.35
2022-12-08T01:07:03.749Z,8.05
2022-12-08T01:09:30.055Z,7.38
2022-12-08T01:11:56.282Z,7.43
2022-12-08T01:14:22.600Z,6.95
2022-12-08T01:16:49.051Z,6.47
2022-12-08T01:19:15.720Z,6.10
2022-12-08T01:21:42.199Z,6.72
2022-12-08T01:24:08.603Z,6.38
2022-12-08T01:26:34.899Z,6.80
2022-12-08T01:29:01.415Z,6.97
2022-12-08T01:31:27.760Z,5.30
2022-12-08T01:33:54.169Z,6.20
2022-12-08T01:36:20.455Z,6.60
2022-12-08T01:38:46.763Z,6.20
2022-12-08T01:41:13.088Z,6.38
2022-12-08T01:43:39.471Z,5.85
2022-12-08T01:46:05.799Z,5.93
2022-12-08T01:48:32.121Z,5.35
2022-12-08T01:50:58.417Z,5.88
2022-12-08T01:53:24.659Z,5.85
2022-12-08T01:55:50.981Z,6.05
2022-12-08T01:58:17.316Z,5.68
2022-12-08T02:00:43.555Z,8.43
2022-12-08T02:03:10.088Z,5.13
2022-12-08T02:05:36.504Z,6.15
2022-12-08T02:08:03.160Z,6.40
2022-12-08T02:10:29.443Z,5.15
2022-12-08T02:12:55.828Z,5.15
2022-12-08T02:15:22.410Z,6.03
2022-12-08T02:17:48.806Z,5.53
2022-12-08T02:20:15.580Z,5.63
2022-12-08T02:22:43.650Z,5.35
2022-12-08T02:25:09.993Z,5.72
2022-12-08T02:27:36.434Z,6.20
2022-12-08T02:30:03.185Z,5.72
2022-12-08T02:32:29.594Z,5.47
2022-12-08T02:34:55.969Z,5.90
2022-12-08T02:37:22.214Z,6.50
2022-12-08T02:39:48.615Z,5.97
2022-12-08T02:42:14.954Z,6.32
2022-12-08T02:44:41.264Z,4.95
2022-12-08T02:47:07.600Z,5.78
2022-12-08T02:49:33.986Z,5.07
2022-12-08T02:52:00.288Z,5.95
2022-12-08T02:54:26.654Z,5.95
2022-12-08T02:56:52.947Z,5.50
2022-12-08T02:59:19.444Z,5.63
2022-12-08T03:01:45.826Z,5.70
2022-12-08T03:04:12.253Z,5.57
2022-12-08T03:06:38.488Z,5.07
2022-12-08T03:09:04.962Z,4.90
2022-12-08T03:11:31.204Z,5.43
2022-12-08T03:13:57.511Z,5.40
2022-12-08T03:16:23.949Z,5.18
2022-12-08T03:18:50.280Z,5.00
2022-12-08T03:21:16.732Z,4.93
2022-12-08T03:23:43.103Z,4.43
2022-12-08T03:26:09.386Z,5.00
2022-12-08T03:28:35.663Z,5.07
2022-12-08T03:31:02.258Z,6.05
2022-12-08T03:33:28.750Z,5.50
2022-12-08T03:35:55.032Z,4.50
2022-12-08T03:38:21.452Z,5.55
2022-12-08T03:40:47.993Z,5.45
2022-12-08T03:43:14.244Z,6.38
2022-12-08T03:45:40.487Z,4.95
2022-12-08T03:48:07.028Z,4.63
2022-12-08T03:50:33.626Z,4.18
2022-12-08T03:52:59.932Z,4.70
2022-12-08T03:55:26.192Z,4.65
2022-12-08T03:57:52.538Z,4.50
2022-12-08T04:00:18.838Z,4.50
2022-12-08T04:02:45.211Z,5.93
2022-12-08T04:05:11.577Z,4.43
2022-12-08T04:07:37.868Z,4.57
2022-12-08T04:10:04.597Z,4.82
2022-12-08T04:12:31.439Z,4.43
2022-12-08T04:14:57.788Z,5.40
2022-12-08T04:17:24.048Z,6.05
2022-12-08T04:19:50.338Z,4.13
2022-12-08T04:22:16.668Z,5.60
2022-12-08T04:24:42.960Z,5.38
2022-12-08T04:27:09.475Z,4.20
2022-12-08T04:29:36.053Z,4.82
2022-12-08T04:32:02.461Z,5.18
2022-12-08T04:34:28.773Z,4.78
2022-12-08T04:36:55.330Z,4.47
2022-12-08T04:39:21.682Z,4.78
2022-12-08T04:41:48.010Z,5.38
2022-12-08T04:44:14.336Z,4.30
2022-12-08T04:46:43.588Z,4.70
2022-12-08T04:49:10.224Z,4.83
2022-12-08T04:51:36.828Z,4.97
2022-12-08T04:54:03.090Z,5.47
2022-12-08T04:56:29.524Z,4.90
2022-12-08T04:58:55.860Z,5.13
2022-12-08T05:01:22.217Z,5.90
2022-12-08T05:03:48.608Z,4.78
2022-12-08T05:06:15.023Z,4.63
2022-12-08T05:08:41.619Z,4.80
2022-12-08T05:11:07.998Z,4.68
2022-12-08T05:13:34.288Z,5.97
2022-12-08T05:16:00.671Z,5.70
2022-12-08T05:18:27.046Z,5.15
2022-12-08T05:20:53.442Z,4.45
2022-12-08T05:23:20.229Z,5.43
2022-12-08T05:25:46.564Z,5.50
2022-12-08T05:28:40.344Z,5.28
2022-12-08T05:30:59.125Z,5.35
2022-12-08T05:33:25.631Z,5.63
2022-12-08T05:35:51.923Z,5.75
2022-12-08T05:38:18.309Z,6.15
2022-12-08T05:40:44.577Z,5.07
2022-12-08T05:43:11.113Z,5.43
2022-12-08T05:45:37.519Z,4.70
2022-12-08T05:48:03.879Z,6.10
2022-12-08T05:50:30.195Z,5.68
2022-12-08T05:52:56.517Z,5.53
2022-12-08T05:55:22.786Z,5.25
2022-12-08T05:57:49.181Z,5.35
2022-12-08T06:00:15.525Z,5.07
2022-12-08T06:02:41.859Z,5.10
2022-12-08T06:05:08.182Z,5.93
2022-12-08T06:07:34.472Z,5.40
2022-12-08T06:10:00.761Z,6.13
2022-12-08T06:12:27.218Z,5.90
2022-12-08T06:14:53.667Z,5.57
2022-12-08T06:17:19.942Z,5.88
2022-12-08T06:19:46.191Z,5.97
2022-12-08T06:22:12.465Z,5.95
2022-12-08T06:24:38.740Z,5.88
2022-12-08T06:27:04.979Z,6.97
2022-12-08T06:29:31.287Z,5.55
2022-12-08T06:31:57.725Z,6.75
2022-12-08T06:34:24.255Z,6.10
2022-12-08T06:36:50.639Z,6.38
2022-12-08T06:39:16.991Z,5.90
2022-12-08T06:41:43.294Z,6.28
2022-12-08T06:44:09.558Z,7.60
2022-12-08T06:46:35.988Z,6.50
2022-12-08T06:49:02.343Z,6.85
2022-12-08T06:51:28.578Z,5.95
2022-12-08T06:53:54.888Z,6.40
2022-12-08T06:56:21.150Z,6.65
2022-12-08T06:58:52.137Z,7.35
2022-12-08T07:01:19.335Z,6.72
2022-12-08T07:03:45.738Z,7.10
2022-12-08T07:06:12.254Z,6.43
2022-12-08T07:08:38.511Z,6.20
2022-12-08T07:11:04.764Z,6.10
2022-12-08T07:13:31.100Z,8.43
2022-12-08T07:15:57.428Z,7.07
2022-12-08T07:18:23.676Z,7.40
2022-12-08T07:20:49.963Z,6.22
2022-12-08T07:23:16.442Z,7.82
2022-12-08T07:25:42.885Z,8.23
2022-12-08T07:28:09.309Z,8.60
2022-12-08T07:30:35.841Z,6.00
2022-12-08T07:33:02.137Z,7.00
2022-12-08T07:35:28.441Z,8.15
2022-12-08T07:37:54.780Z,9.70
2022-12-08T07:40:21.051Z,8.00
2022-12-08T07:42:47.445Z,8.25
2022-12-08T07:45:13.842Z,11.70
2022-12-08T07:47:40.180Z,8.82
2022-12-08T07:50:06.815Z,7.88
2022-12-08T07:55:09.244Z,6.72
2022-12-08T07:57:35.525Z,8.07
2022-12-08T08:00:02.334Z,7.45
2022-12-08T08:02:29.141Z,7.72
2022-12-08T08:04:55.637Z,9.73
2022-12-08T08:07:21.998Z,8.32
2022-12-08T08:09:48.296Z,8.80
2022-12-08T08:12:31.670Z,10.70
2022-12-08T08:14:58.521Z,7.80
2022-12-08T08:17:24.937Z,7.10
2022-12-08T08:19:51.356Z,8.38
2022-12-08T08:22:17.596Z,8.45
2022-12-08T08:24:45.279Z,8.73
2022-12-08T08:27:11.926Z,7.75
2022-12-08T08:29:38.364Z,8.40
2022-12-08T08:32:04.804Z,8.65
2022-12-08T08:34:31.327Z,9.65
2022-12-08T08:36:57.703Z,8.20
2022-12-08T08:39:24.142Z,12.05
2022-12-08T08:41:50.599Z,9.07
2022-12-08T08:44:17.061Z,7.28
2022-12-08T08:46:43.574Z,9.38
2022-12-08T08:49:09.987Z,8.05
2022-12-08T08:51:36.269Z,8.05
2022-12-08T08:54:02.577Z,10.13
2022-12-08T08:56:28.824Z,8.70
2022-12-08T08:58:55.268Z,8.07
2022-12-08T09:01:21.663Z,7.97
2022-12-08T09:03:48.017Z,9.85
2022-12-08T09:06:14.351Z,8.70
2022-12-08T09:08:40.673Z,10.40
2022-12-08T09:11:07.085Z,8.32
2022-12-08T09:13:33.437Z,7.28
2022-12-08T09:15:59.759Z,8.00
2022-12-08T09:18:26.093Z,10.10
2022-12-08T09:20:52.443Z,8.43
2022-12-08T09:23:18.727Z,8.93
2022-12-08T09:25:45.016Z,7.95
2022-12-08T09:28:11.368Z,8.85
2022-12-08T09:30:37.783Z,8.82
2022-12-08T09:33:04.199Z,9.52
2022-12-08T09:35:30.503Z,12.43
2022-12-08T09:37:56.769Z,9.88
2022-12-08T09:40:23.259Z,8.95
2022-12-08T09:42:49.648Z,10.60
2022-12-08T09:45:16.064Z,12.63
2022-12-08T09:47:42.402Z,10.48
2022-12-08T09:50:09.023Z,10.68
2022-12-08T09:52:35.632Z,11.52
2022-12-08T09:55:01.886Z,11.35
2022-12-08T09:57:28.159Z,13.07
2022-12-08T09:59:54.503Z,13.00
2022-12-08T10:02:20.883Z,13.02
2022-12-08T10:04:47.273Z,13.23
2022-12-08T10:07:13.627Z,12.85
2022-12-08T10:09:39.885Z,13.82
2022-12-08T10:12:06.226Z,12.57
2022-12-08T10:14:32.587Z,13.57
2022-12-08T10:16:59.158Z,13.70
2022-12-08T10:19:25.468Z,13.25
2022-12-08T10:21:51.779Z,16.00
2022-12-08T10:24:18.075Z,15.43
2022-12-08T10:26:44.604Z,15.60
2022-12-08T10:29:10.941Z,13.82
2022-12-08T10:31:37.307Z,15.35
2022-12-08T10:34:03.703Z,15.27
2022-12-08T10:36:30.003Z,17.70
2022-12-08T10:41:25.497Z,16.20
2022-12-08T10:43:51.749Z,16.23
2022-12-08T10:46:18.068Z,16.40
2022-12-08T10:48:44.403Z,13.85
2022-12-08T10:51:10.806Z,15.70
2022-12-08T10:53:37.045Z,15.90
2022-12-08T10:56:03.695Z,17.63
2022-12-08T10:58:30.194Z,15.77
2022-12-08T11:00:56.639Z,14.98
2022-12-08T11:03:22.961Z,14.82
2022-12-08T11:05:49.437Z,15.15
2022-12-08T11:08:15.716Z,16.05
2022-12-08T11:10:42.187Z,15.27
2022-12-08T11:13:08.474Z,15.07
2022-12-08T11:15:34.785Z,16.27
2022-12-08T11:18:01.185Z,15.82
2022-12-08T11:20:27.506Z,15.68
2022-12-08T11:22:53.845Z,15.73
2022-12-08T11:25:20.189Z,15.27
2022-12-08T11:27:46.645Z,17.15
2022-12-08T11:30:14.806Z,18.00
2022-12-08T11:32:41.463Z,15.27
2022-12-08T11:35:07.694Z,16.30
2022-12-08T11:37:35.178Z,15.25
2022-12-08T11:40:01.968Z,17.45
2022-12-08T11:42:28.364Z,15.35
2022-12-08T11:44:54.635Z,15.15
2022-12-08T11:47:20.965Z,16.42
2022-12-08T11:52:18.654Z,15.98
2022-12-08T11:54:44.964Z,17.80
2022-12-08T11:57:11.491Z,17.42
2022-12-08T11:59:37.745Z,17.23
2022-12-08T12:02:04.240Z,13.50
2022-12-08T12:04:30.604Z,16.17
2022-12-08T12:09:38.412Z,15.23
2022-12-08T12:12:04.774Z,15.35
2022-12-08T12:19:52.399Z,14.10
2022-12-08T12:22:18.676Z,15.38
2022-12-08T12:24:44.968Z,15.10
2022-12-08T12:27:11.345Z,16.15
2022-12-08T12:29:37.746Z,14.45
2022-12-08T12:32:04.035Z,14.48
2022-12-08T12:34:30.340Z,15.32
2022-12-08T12:36:56.801Z,16.27
2022-12-08T12:39:23.182Z,14.10
2022-12-08T12:41:49.480Z,12.82
2022-12-08T12:44:15.751Z,14.20
2022-12-08T12:46:42.023Z,12.98
2022-12-08T12:49:08.357Z,13.52
2022-12-08T12:51:34.692Z,14.65
2022-12-08T12:54:00.918Z,11.77
2022-12-08T12:59:00.936Z,13.63
2022-12-08T13:01:27.248Z,13.25
2022-12-08T13:03:53.605Z,15.60
2022-12-08T13:06:19.909Z,13.75
2022-12-08T13:08:46.272Z,13.07
2022-12-08T13:11:12.587Z,12.35
2022-12-08T13:13:38.881Z,14.63
2022-12-08T13:16:15.535Z,12.05
2022-12-08T13:18:45.185Z,12.63
2022-12-08T13:21:11.507Z,12.38
2022-12-08T13:23:37.782Z,13.13
2022-12-08T13:26:04.096Z,13.73
2022-12-08T13:28:30.355Z,14.85
2022-12-08T13:30:56.729Z,13.65
2022-12-08T13:33:23.161Z,12.25
2022-12-08T13:35:49.481Z,11.85
2022-12-08T13:38:15.913Z,13.52
2022-12-08T13:40:42.306Z,13.23
2022-12-08T13:43:08.619Z,12.23
2022-12-08T13:46:12.512Z,11.30
2022-12-08T13:48:35.234Z,12.73
2022-12-08T13:54:52.346Z,12.48
2022-12-08T13:57:03.939Z,12.60
2022-12-08T13:59:27.216Z,11.88
2022-12-08T14:01:53.615Z,11.60
2022-12-08T14:04:42.589Z,12.20
2022-12-08T14:07:06.305Z,11.35
2022-12-08T14:09:32.603Z,12.68
2022-12-08T14:11:59.376Z,11.93
2022-12-08T14:14:53.904Z,10.88
2022-12-08T14:17:12.364Z,11.80
2022-12-08T14:19:38.900Z,11.02
2022-12-08T14:22:05.482Z,10.75
2022-12-08T14:24:32.523Z,11.77
2022-12-08T14:26:58.770Z,13.63
2022-12-08T14:29:25.101Z,11.27
2022-12-08T14:31:51.384Z,11.93
2022-12-08T14:34:17.690Z,9.52
2022-12-08T14:36:43.970Z,11.43
2022-12-08T14:39:10.309Z,11.55
2022-12-08T14:41:36.843Z,11.40
2022-12-08T14:44:03.238Z,12.55
2022-12-08T14:46:29.758Z,11.02
2022-12-08T14:48:56.148Z,11.18
2022-12-08T14:51:22.516Z,13.20
2022-12-08T14:53:48.863Z,11.10
2022-12-08T14:56:15.241Z,11.07
2022-12-08T14:58:41.554Z,10.75
2022-12-08T15:01:07.947Z,11.55
2022-12-08T15:03:34.321Z,10.80
2022-12-08T15:06:00.624Z,10.95
2022-12-08T15:08:27.152Z,11.77
2022-12-08T15:10:53.661Z,11.55
2022-12-08T15:13:19.924Z,12.05
2022-12-08T15:15:46.251Z,12.18
2022-12-08T15:18:12.520Z,11.77
2022-12-08T15:20:38.832Z,10.05
2022-12-08T15:23:05.317Z,11.30
2022-12-08T15:25:31.548Z,12.48
2022-12-08T15:27:58.036Z,11.60
2022-12-08T15:32:59.514Z,12.10
2022-12-08T15:35:25.809Z,14.98
2022-12-08T15:37:52.115Z,11.75
2022-12-08T15:40:18.549Z,12.73
2022-12-08T15:42:45.037Z,10.98
2022-12-08T15:45:11.419Z,11.63
2022-12-08T15:47:37.656Z,11.88
2022-12-08T15:50:04.140Z,12.48
2022-12-08T15:52:30.770Z,14.77
2022-12-08T15:54:57.089Z,12.30
2022-12-08T15:57:53.020Z,12.68
2022-12-08T16:00:30.346Z,13.57
2022-12-08T16:05:49.998Z,11.65
2022-12-08T16:08:47.458Z,10.60
2022-12-08T16:12:03.789Z,10.82
2022-12-08T16:14:29.224Z,11.60
2022-12-08T16:16:47.704Z,12.15
2022-12-08T16:19:14.047Z,11.38
2022-12-08T16:22:29.858Z,11.18
2022-12-08T16:24:26.716Z,10.73
2022-12-08T16:29:39.563Z,10.38
2022-12-08T16:32:05.994Z,11.27
2022-12-08T16:34:32.364Z,10.73
2022-12-08T16:36:58.811Z,12.85
2022-12-08T16:39:25.300Z,11.05
2022-12-08T16:41:51.667Z,11.15
2022-12-08T16:44:17.943Z,11.15
2022-12-08T16:46:44.200Z,10.77
2022-12-08T16:51:46.580Z,10.65
2022-12-08T16:54:12.835Z,10.30
2022-12-08T16:56:39.132Z,9.13
2022-12-08T16:59:05.392Z,9.55
2022-12-08T17:01:31.737Z,9.40
2022-12-08T17:06:44.324Z,9.23
2022-12-08T17:09:10.838Z,8.63
2022-12-08T17:11:42.677Z,9.80
2022-12-08T17:14:09.821Z,7.90
2022-12-08T17:16:36.279Z,8.57
2022-12-08T17:19:02.894Z,9.40
2022-12-08T17:21:29.255Z,9.55
2022-12-08T17:23:55.629Z,8.95
2022-12-08T17:26:22.021Z,7.60
2022-12-08T17:29:03.775Z,9.25
2022-12-08T17:31:31.316Z,7.78
2022-12-08T17:33:58.013Z,7.80
2022-12-08T17:36:24.285Z,7.95
2022-12-08T17:38:50.663Z,8.57
2022-12-08T17:41:16.939Z,8.45
2022-12-08T17:43:43.283Z,7.90
2022-12-08T17:46:09.626Z,7.70
2022-12-08T17:48:36.118Z,9.10
2022-12-08T17:51:02.377Z,7.78
2022-12-08T17:53:30.672Z,7.07
2022-12-08T17:56:00.571Z,6.85
2022-12-08T17:58:27.038Z,7.05
2022-12-08T18:00:53.373Z,7.53
2022-12-08T18:03:19.637Z,7.55
2022-12-08T18:05:45.902Z,6.78
2022-12-08T18:08:12.315Z,7.03
2022-12-08T18:10:38.718Z,7.65
2022-12-08T18:18:16.650Z,98.60
2022-12-08T18:20:42.898Z,254.98
2022-12-08T18:23:09.299Z,232.02
2022-12-08T18:25:35.610Z,215.82
2022-12-08T18:28:01.899Z,206.38
2022-12-08T18:30:28.284Z,244.07
2022-12-08T18:32:57.464Z,209.30
2022-12-08T18:35:24.074Z,199.45
2022-12-08T18:37:50.391Z,182.65
2022-12-08T18:40:16.832Z,161.10
2022-12-08T18:42:43.151Z,133.27
2022-12-08T18:45:09.476Z,120.13
2022-12-08T18:47:35.704Z,134.18
2022-12-08T18:50:01.967Z,114.05
2022-12-08T18:52:32.008Z,113.18
2022-12-08T18:55:06.318Z,107.57
2022-12-08T18:57:33.376Z,104.03
2022-12-08T18:59:59.641Z,99.45
2022-12-08T19:02:25.971Z,105.03
2022-12-08T19:04:52.354Z,96.88
2022-12-08T19:07:18.871Z,99.47
2022-12-08T19:09:45.132Z,99.03
2022-12-08T19:12:11.399Z,101.55
2022-12-08T19:14:37.735Z,103.53
2022-12-08T19:17:04.052Z,101.28
2022-12-08T19:19:30.310Z,114.85
2022-12-08T19:21:56.684Z,165.63
2022-12-08T19:24:23.048Z,180.40
2022-12-08T19:26:49.609Z,177.00
2022-12-08T19:29:15.964Z,163.80
2022-12-08T19:31:42.396Z,161.48
2022-12-08T19:34:08.750Z,152.93
2022-12-08T19:36:35.066Z,153.95
2022-12-08T19:39:01.444Z,148.75
2022-12-08T19:41:27.817Z,143.50
2022-12-08T19:43:54.120Z,143.45
2022-12-08T19:46:20.859Z,136.68
2022-12-08T19:48:47.415Z,137.27
2022-12-08T19:51:13.760Z,136.75
2022-12-08T19:56:22.206Z,150.93
2022-12-08T19:58:48.556Z,196.60
2022-12-08T20:01:15.032Z,206.57
2022-12-08T20:03:41.365Z,199.70
2022-12-08T20:06:07.759Z,189.05
2022-12-08T20:08:34.072Z,187.18
2022-12-08T20:11:00.634Z,180.25
2022-12-08T20:13:26.891Z,153.75
2022-12-08T20:15:53.329Z,142.93
2022-12-08T20:18:19.835Z,134.68
2022-12-08T20:20:46.412Z,122.55
2022-12-08T20:23:12.885Z,120.82
2022-12-08T20:25:39.160Z,105.78
2022-12-08T20:28:05.438Z,109.63
2022-12-08T20:30:31.757Z,104.25
2022-12-08T20:32:58.021Z,101.30
2022-12-08T20:35:24.426Z,194.10
2022-12-08T20:37:50.706Z,273.23
2022-12-08T20:40:17.110Z,250.27
2022-12-08T20:42:43.584Z,221.52
2022-12-08T20:45:10.092Z,188.00
2022-12-08T20:47:36.812Z,168.35
2022-12-08T20:50:03.529Z,161.98
2022-12-08T20:52:29.989Z,141.32
2022-12-08T20:54:56.323Z,135.80
2022-12-08T20:57:22.731Z,121.97
2022-12-08T20:59:49.001Z,110.38
2022-12-08T21:02:15.381Z,107.53
2022-12-08T21:04:42.043Z,97.10
2022-12-08T21:07:08.623Z,100.57
2022-12-08T21:09:35.319Z,207.13
2022-12-08T21:12:01.917Z,396.40
2022-12-08T21:14:28.513Z,411.13
2022-12-08T21:16:54.934Z,406.30
2022-12-08T21:19:21.716Z,845.20
2022-12-08T21:21:48.223Z,775.40
2022-12-08T21:24:14.681Z,594.45
2022-12-08T21:26:41.035Z,507.20
2022-12-08T21:29:07.452Z,529.65
2022-12-08T21:31:33.919Z,450.73
2022-12-08T21:34:00.567Z,432.00
2022-12-08T21:36:27.164Z,436.83
2022-12-08T21:38:53.988Z,463.75
2022-12-08T21:41:20.446Z,728.78
2022-12-08T21:43:46.992Z,663.72
2022-12-08T21:46:13.799Z,544.35
2022-12-08T21:48:40.321Z,449.00
2022-12-08T21:51:07.048Z,539.10
2022-12-08T21:53:33.892Z,509.30
2022-12-08T21:56:00.311Z,722.50
2022-12-08T21:58:27.140Z,517.03
2022-12-08T22:00:53.856Z,426.70
2022-12-08T22:03:20.721Z,852.45
2022-12-08T22:05:47.512Z,1529.10
2022-12-08T22:08:13.963Z,1700.43
2022-12-08T22:10:40.655Z,1670.07
2022-12-08T22:13:07.220Z,952.83
2022-12-08T22:15:34.152Z,1340.03
2022-12-08T22:18:00.908Z,1026.55
2022-12-08T22:20:27.455Z,867.70
2022-12-08T22:22:53.913Z,772.33
2022-12-08T22:25:20.332Z,754.22
2022-12-08T22:27:46.697Z,723.90
2022-12-08T22:30:13.408Z,677.50
2022-12-08T22:32:40.319Z,631.33
2022-12-08T22:35:06.817Z,694.95
2022-12-08T22:37:33.214Z,677.60
2022-12-08T22:39:59.798Z,670.15
2022-12-08T22:42:26.202Z,658.55
2022-12-08T22:44:52.771Z,629.33
2022-12-08T22:47:19.648Z,614.53
2022-12-08T22:49:46.349Z,593.72
2022-12-08T22:52:12.681Z,657.28
2022-12-08T22:54:39.110Z,658.70
2022-12-08T22:57:05.682Z,626.15
2022-12-08T22:59:32.084Z,617.75
2022-12-08T23:01:58.692Z,596.97
2022-12-08T23:04:25.296Z,594.63
2022-12-08T23:06:52.090Z,572.13
2022-12-08T23:09:18.729Z,559.22
2022-12-08T23:11:45.149Z,540.22
2022-12-08T23:14:11.445Z,533.63
2022-12-08T23:16:38.153Z,540.45
2022-12-08T23:19:04.575Z,627.63
2022-12-08T23:21:31.113Z,637.00
2022-12-08T23:23:57.741Z,631.88
2022-12-08T23:26:24.262Z,629.65
2022-12-08T23:28:50.615Z,621.65
2022-12-08T23:31:17.010Z,619.60
2022-12-08T23:33:43.779Z,616.97
2022-12-08T23:36:10.545Z,612.05
2022-12-08T23:38:36.822Z,605.72
2022-12-08T23:41:03.424Z,603.22
2022-12-08T23:43:29.973Z,602.08
2022-12-08T23:45:56.463Z,594.42
2022-12-08T23:48:22.826Z,595.30
2022-12-08T23:50:49.444Z,591.22
2022-12-08T23:53:16.109Z,580.28
2022-12-08T23:55:42.550Z,581.80
2022-12-08T23:58:09.384Z,583.33
